Time;durP1;ratioP1;P1;durP2;ratioP2;P2;SDS_P1;SDS_P2;PMS_P1;PMS_P2;Temp;Humidity;BMP_temperature;BMP_pressure;BME280_temperature;BME280_humidity;BME280_pressure;Samples;Min_cycle;Max_cycle;Signal;HPM_P1;HPM_P2
2022/12/08 00:01:26;;;;;;;12.07;7.17;;;;;;;;;;5037454;28;20291;-62
2022/12/08 00:03:55;;;;;;;9.53;6.70;;;;;;;;;;5036996;28;20265;-62
2022/12/08 00:09:23;;;;;;;13.53;6.93;;;;;;;;;;5036794;28;20290;-61
2022/12/08 00:11:55;;;;;;;8.73;5.70;;;;;;;;;;5037085;28;20618;-61
2022/12/08 00:14:26;;;;;;;11.90;6.77;;;;;;;;;;5037071;28;20604;-61
2022/12/08 00:16:54;;;;;;;9.87;7.10;;;;;;;;;;5037313;28;20251;-62
2022/12/08 00:19:22;;;;;;;9.27;7.13;;;;;;;;;;5037066;28;20446;-61
2022/12/08 00:21:50;;;;;;;9.43;6.87;;;;;;;;;;5037114;28;20535;-61
2022/12/08 00:24:19;;;;;;;12.07;6.67;;;;;;;;;;5036679;28;20462;-62
2022/12/08 00:26:47;;;;;;;11.10;7.30;;;;;;;;;;5036962;28;20537;-61
2022/12/08 00:29:15;;;;;;;11.50;6.80;;;;;;;;;;5040717;28;20846;-62
2022/12/08 00:31:46;;;;;;;11.13;7.37;;;;;;;;;;5040763;28;20442;-62
2022/12/08 00:34:14;;;;;;;13.80;8.33;;;;;;;;;;5040608;28;20474;-62
2022/12/08 00:36:42;;;;;;;11.50;7.03;;;;;;;;;;5040416;28;20846;-62
2022/12/08 00:39:10;;;;;;;11.47;7.10;;;;;;;;;;5040320;28;20541;-62
2022/12/08 00:44:24;;;;;;;9.77;7.10;;;;;;;;;;5040689;28;20262;-62
2022/12/08 00:46:53;;;;;;;12.03;7.70;;;;;;;;;;5040649;28;20214;-61
2022/12/08 00:49:21;;;;;;;11.83;6.57;;;;;;;;;;5040442;28;20521;-62
2022/12/08 00:51:49;;;;;;;9.80;6.77;;;;;;;;;;5040300;28;20442;-62
2022/12/08 00:54:18;;;;;;;12.43;7.80;;;;;;;;;;5039961;28;21015;-62
2022/12/08 00:56:46;;;;;;;11.60;6.97;;;;;;;;;;5039682;28;20572;-62
2022/12/08 00:59:14;;;;;;;11.43;6.77;;;;;;;;;;5040310;28;20457;-62
2022/12/08 01:01:43;;;;;;;12.77;6.77;;;;;;;;;;5034712;28;20478;-62
2022/12/08 01:04:14;;;;;;;13.03;7.40;;;;;;;;;;5036545;28;20227;-62
2022/12/08 01:06:42;;;;;;;9.20;7.20;;;;;;;;;;5039173;28;20234;-62
2022/12/08 01:09:11;;;;;;;10.73;7.03;;;;;;;;;;5038440;28;20609;-62
2022/12/08 01:11:39;;;;;;;8.40;6.57;;;;;;;;;;5038587;28;20246;-62
2022/12/08 01:14:07;;;;;;;12.20;7.27;;;;;;;;;;5038607;28;20242;-62
2022/12/08 01:16:35;;;;;;;11.57;6.37;;;;;;;;;;5038672;28;20489;-62
2022/12/08 01:19:04;;;;;;;15.30;7.23;;;;;;;;;;5038691;28;20462;-61
2022/12/08 01:21:33;;;;;;;10.23;6.67;;;;;;;;;;5035546;28;20443;-62
2022/12/08 01:24:02;;;;;;;9.07;6.30;;;;;;;;;;5035169;28;20454;-62
2022/12/08 01:26:30;;;;;;;10.30;6.87;;;;;;;;;;5036914;28;20525;-61
2022/12/08 01:28:59;;;;;;;8.70;6.50;;;;;;;;;;5038380;28;20439;-62
2022/12/08 01:31:27;;;;;;;9.97;7.00;;;;;;;;;;5038862;28;20446;-61
2022/12/08 01:33:57;;;;;;;10.27;7.30;;;;;;;;;;5038910;28;20457;-62
2022/12/08 01:36:26;;;;;;;9.53;6.57;;;;;;;;;;5036848;28;20481;-62
2022/12/08 01:38:56;;;;;;;11.43;7.40;;;;;;;;;;5037769;28;20934;-62
2022/12/08 01:41:26;;;;;;;11.27;7.27;;;;;;;;;;5033443;28;20474;-61
2022/12/08 01:43:58;;;;;;;11.43;7.17;;;;;;;;;;5037417;28;20227;-62
2022/12/08 01:46:27;;;;;;;9.27;6.80;;;;;;;;;;5038379;28;20453;-62
2022/12/08 01:48:59;;;;;;;9.60;6.73;;;;;;;;;;5032656;28;20439;-61
2022/12/08 01:51:27;;;;;;;12.40;7.27;;;;;;;;;;5038244;28;20315;-61
2022/12/08 01:53:57;;;;;;;12.07;7.33;;;;;;;;;;5035146;28;20248;-62
2022/12/08 01:56:28;;;;;;;11.33;6.50;;;;;;;;;;5036572;28;20461;-62
2022/12/08 01:58:56;;;;;;;11.60;7.47;;;;;;;;;;5035062;28;20821;-61
2022/12/08 02:01:24;;;;;;;9.90;7.10;;;;;;;;;;5037834;28;20324;-62
2022/12/08 02:03:54;;;;;;;9.50;6.97;;;;;;;;;;5037503;28;20481;-62
2022/12/08 02:06:23;;;;;;;13.67;7.57;;;;;;;;;;5037684;28;20442;-62
2022/12/08 02:08:51;;;;;;;14.60;7.00;;;;;;;;;;5038087;28;20196;-62
2022/12/08 02:11:21;;;;;;;12.93;7.27;;;;;;;;;;5037810;28;20533;-62
2022/12/08 02:13:50;;;;;;;15.07;7.07;;;;;;;;;;5037410;28;20462;-62
2022/12/08 02:16:26;;;;;;;10.47;7.00;;;;;;;;;;5037871;28;20474;-62
2022/12/08 02:19:02;;;;;;;10.30;6.07;;;;;;;;;;5037527;28;20430;-62
2022/12/08 02:21:56;;;;;;;10.83;7.30;;;;;;;;;;5036832;28;20529;-62
2022/12/08 02:24:28;;;;;;;16.90;7.37;;;;;;;;;;5036437;28;20463;-62
2022/12/08 02:27:20;;;;;;;10.50;6.80;;;;;;;;;;5036136;28;20538;-62
2022/12/08 02:29:59;;;;;;;9.60;5.97;;;;;;;;;;5036671;28;20466;-62
2022/12/08 02:32:54;;;;;;;8.47;5.50;;;;;;;;;;5036053;28;20446;-62
2022/12/08 02:35:27;;;;;;;12.10;6.13;;;;;;;;;;5037890;28;20471;-62
2022/12/08 02:37:57;;;;;;;9.60;5.63;;;;;;;;;;5038311;28;20485;-61
2022/12/08 02:40:28;;;;;;;11.97;6.67;;;;;;;;;;5038303;28;20477;-61
2022/12/08 02:42:57;;;;;;;11.80;5.80;;;;;;;;;;5038023;28;20976;-61
2022/12/08 02:45:28;;;;;;;15.67;7.77;;;;;;;;;;5037162;28;20482;-61
2022/12/08 02:47:58;;;;;;;15.10;6.17;;;;;;;;;;5037693;28;20453;-61
2022/12/08 02:50:27;;;;;;;13.83;6.43;;;;;;;;;;5038046;28;20470;-62
2022/12/08 02:52:55;;;;;;;9.90;5.67;;;;;;;;;;5037766;28;20465;-62
2022/12/08 02:55:26;;;;;;;10.20;6.50;;;;;;;;;;5037890;28;20873;-62
2022/12/08 02:58:05;;;;;;;10.07;5.90;;;;;;;;;;5037810;28;20508;-62
2022/12/08 03:00:37;;;;;;;10.67;5.87;;;;;;;;;;5038023;28;20528;-62
2022/12/08 03:03:09;;;;;;;10.23;5.87;;;;;;;;;;5037917;28;20616;-61
2022/12/08 03:05:54;;;;;;;10.70;5.67;;;;;;;;;;5037776;28;20792;-62
2022/12/08 03:08:24;;;;;;;10.53;5.67;;;;;;;;;;5037881;28;20442;-62
2022/12/08 03:10:56;;;;;;;11.70;6.50;;;;;;;;;;5037950;28;20441;-62
2022/12/08 03:13:26;;;;;;;9.03;6.23;;;;;;;;;;5038031;28;20482;-62
2022/12/08 03:15:55;;;;;;;10.37;7.03;;;;;;;;;;5036787;28;20450;-62
2022/12/08 03:18:25;;;;;;;9.47;6.17;;;;;;;;;;5037053;28;20518;-62
2022/12/08 03:20:54;;;;;;;11.33;5.80;;;;;;;;;;5038120;28;20529;-61
2022/12/08 03:23:23;;;;;;;10.03;6.03;;;;;;;;;;5037266;28;20953;-61
2022/12/08 03:25:56;;;;;;;11.10;6.83;;;;;;;;;;5037743;28;20446;-61
2022/12/08 03:28:25;;;;;;;9.97;6.30;;;;;;;;;;5037539;28;20529;-62
2022/12/08 03:30:55;;;;;;;9.40;6.23;;;;;;;;;;5037661;28;20447;-62
2022/12/08 03:33:25;;;;;;;11.10;6.67;;;;;;;;;;5037449;28;20533;-61
2022/12/08 03:35:55;;;;;;;9.83;6.33;;;;;;;;;;5037626;28;20470;-61
2022/12/08 03:38:23;;;;;;;10.17;6.00;;;;;;;;;;5037144;28;21123;-62
2022/12/08 03:43:33;;;;;;;12.80;5.87;;;;;;;;;;5037215;28;20825;-62
2022/12/08 03:46:01;;;;;;;8.40;6.07;;;;;;;;;;5035504;28;20465;-61
2022/12/08 03:48:29;;;;;;;8.97;6.27;;;;;;;;;;5036493;28;20514;-61
2022/12/08 03:50:58;;;;;;;10.23;6.73;;;;;;;;;;5037635;28;20446;-62
2022/12/08 03:53:26;;;;;;;9.10;6.20;;;;;;;;;;5023710;28;20556;-62
2022/12/08 03:55:54;;;;;;;8.43;5.63;;;;;;;;;;5037516;28;20533;-62
2022/12/08 03:58:22;;;;;;;13.20;6.57;;;;;;;;;;5037574;28;20485;-62
2022/12/08 04:00:51;;;;;;;9.77;6.30;;;;;;;;;;5037276;28;20441;-62
2022/12/08 04:03:19;;;;;;;11.40;6.30;;;;;;;;;;5041360;28;20449;-62
2022/12/08 04:05:47;;;;;;;11.20;6.50;;;;;;;;;;5041332;28;20446;-62
2022/12/08 04:08:16;;;;;;;9.40;6.63;;;;;;;;;;5038106;28;20478;-61
2022/12/08 04:10:44;;;;;;;9.43;6.00;;;;;;;;;;5036698;28;20802;-62
2022/12/08 04:13:12;;;;;;;10.70;6.70;;;;;;;;;;5041029;28;20452;-61
2022/12/08 04:15:44;;;;;;;10.87;6.27;;;;;;;;;;5039467;28;21036;-62
2022/12/08 04:18:12;;;;;;;12.67;6.13;;;;;;;;;;5040674;28;20506;-61
2022/12/08 04:20:40;;;;;;;10.70;6.90;;;;;;;;;;5040957;28;20438;-62
2022/12/08 04:23:08;;;;;;;9.27;6.37;;;;;;;;;;5040360;28;20438;-62
2022/12/08 04:25:40;;;;;;;11.00;7.50;;;;;;;;;;5040619;28;20446;-62
2022/12/08 04:28:08;;;;;;;10.43;6.73;;;;;;;;;;5040833;28;20447;-62
2022/12/08 04:30:36;;;;;;;10.63;6.87;;;;;;;;;;5040796;28;20462;-62
2022/12/08 04:33:04;;;;;;;11.67;5.73;;;;;;;;;;5040934;28;20530;-61
2022/12/08 04:35:32;;;;;;;10.90;5.73;;;;;;;;;;5040428;28;20961;-62
2022/12/08 04:38:00;;;;;;;9.27;5.90;;;;;;;;;;5040568;28;20568;-62
2022/12/08 04:40:28;;;;;;;11.33;6.30;;;;;;;;;;5040648;28;20460;-62
2022/12/08 04:42:58;;;;;;;9.47;6.20;;;;;;;;;;5040477;28;20450;-62
2022/12/08 04:45:26;;;;;;;8.10;5.60;;;;;;;;;;5040067;28;20474;-62
2022/12/08 04:47:54;;;;;;;6.97;5.27;;;;;;;;;;5038906;28;20468;-62
2022/12/08 04:50:23;;;;;;;10.20;6.27;;;;;;;;;;5040790;28;20525;-62
2022/12/08 04:52:51;;;;;;;9.33;6.23;;;;;;;;;;5040283;28;20454;-62
2022/12/08 04:55:19;;;;;;;8.57;5.60;;;;;;;;;;5040219;28;20824;-62
2022/12/08 04:57:47;;;;;;;9.07;6.17;;;;;;;;;;5040129;28;20537;-62
2022/12/08 05:00:16;;;;;;;8.70;5.83;;;;;;;;;;5040189;28;20466;-62
2022/12/08 05:02:45;;;;;;;12.57;6.80;;;;;;;;;;5039769;28;20549;-62
2022/12/08 05:05:13;;;;;;;9.53;5.70;;;;;;;;;;5039947;28;20998;-62
2022/12/08 05:07:41;;;;;;;11.73;7.20;;;;;;;;;;5039442;28;20470;-62
2022/12/08 05:10:09;;;;;;;9.80;6.20;;;;;;;;;;5037412;28;20454;-61
2022/12/08 05:12:37;;;;;;;9.40;6.33;;;;;;;;;;5032624;28;20955;-62
2022/12/08 05:15:05;;;;;;;8.77;6.33;;;;;;;;;;5027574;28;20470;-61
2022/12/08 05:17:35;;;;;;;10.83;6.07;;;;;;;;;;5037654;28;20451;-62
2022/12/08 05:20:03;;;;;;;12.97;6.40;;;;;;;;;;5038942;28;20517;-61
2022/12/08 05:22:31;;;;;;;9.90;6.70;;;;;;;;;;5039569;28;20810;-62
2022/12/08 05:24:59;;;;;;;12.10;7.40;;;;;;;;;;5039936;28;20476;-61
2022/12/08 05:27:27;;;;;;;9.40;6.47;;;;;;;;;;5031529;28;20449;-61
2022/12/08 05:29:55;;;;;;;11.13;6.37;;;;;;;;;;5031162;28;20504;-62
2022/12/08 05:32:23;;;;;;;10.07;5.97;;;;;;;;;;5032055;28;20878;-62
2022/12/08 05:34:53;;;;;;;9.13;6.27;;;;;;;;;;5035740;28;20549;-62
2022/12/08 05:37:21;;;;;;;10.80;7.40;;;;;;;;;;5032647;28;20444;-62
2022/12/08 05:39:49;;;;;;;11.00;7.10;;;;;;;;;;5039490;28;20486;-62
2022/12/08 05:42:17;;;;;;;10.60;6.87;;;;;;;;;;5029945;28;20466;-62
2022/12/08 05:44:51;;;;;;;14.00;7.73;;;;;;;;;;5030871;28;20469;-62
2022/12/08 05:47:19;;;;;;;8.43;6.03;;;;;;;;;;5029234;28;20496;-62
2022/12/08 05:49:47;;;;;;;12.97;7.17;;;;;;;;;;5035078;28;20454;-62
2022/12/08 05:52:17;;;;;;;13.90;8.50;;;;;;;;;;5039133;28;20453;-62
2022/12/08 05:54:45;;;;;;;11.53;7.53;;;;;;;;;;5038874;28;20498;-62
2022/12/08 05:57:13;;;;;;;11.87;7.83;;;;;;;;;;5039290;28;20446;-62
2022/12/08 05:59:40;;;;;;;12.07;7.40;;;;;;;;;;5039140;28;20493;-62
2022/12/08 06:02:08;;;;;;;11.70;7.23;;;;;;;;;;5037771;28;20459;-62
2022/12/08 06:04:37;;;;;;;14.40;7.00;;;;;;;;;;5038051;28;20532;-62
2022/12/08 06:07:05;;;;;;;12.73;7.40;;;;;;;;;;5038989;28;20478;-62
2022/12/08 06:09:34;;;;;;;12.90;8.67;;;;;;;;;;5038432;28;20809;-61
2022/12/08 06:12:02;;;;;;;12.03;7.30;;;;;;;;;;5039035;28;20446;-62
2022/12/08 06:14:30;;;;;;;12.57;7.57;;;;;;;;;;5038634;28;20966;-62
2022/12/08 06:16:58;;;;;;;12.37;8.17;;;;;;;;;;5038518;28;20474;-62
2022/12/08 06:19:26;;;;;;;9.70;6.97;;;;;;;;;;5038891;28;20488;-62
2022/12/08 06:21:54;;;;;;;10.03;7.90;;;;;;;;;;5038695;28;20534;-62
2022/12/08 06:24:22;;;;;;;12.03;8.13;;;;;;;;;;5035683;28;20566;-63
2022/12/08 06:26:52;;;;;;;14.47;8.67;;;;;;;;;;5034581;28;20446;-62
2022/12/08 06:29:20;;;;;;;11.97;7.83;;;;;;;;;;5038116;28;20470;-63
2022/12/08 06:31:51;;;;;;;15.27;7.90;;;;;;;;;;5034412;28;20529;-61
2022/12/08 06:34:20;;;;;;;11.20;8.00;;;;;;;;;;5037901;28;20989;-63
2022/12/08 06:36:48;;;;;;;11.70;8.17;;;;;;;;;;5034250;28;20883;-63
2022/12/08 06:39:16;;;;;;;12.83;8.07;;;;;;;;;;5028362;28;20492;-63
2022/12/08 06:44:31;;;;;;;17.20;10.17;;;;;;;;;;5038053;28;20469;-63
2022/12/08 06:46:59;;;;;;;17.00;8.70;;;;;;;;;;5037883;28;20446;-63
2022/12/08 06:49:27;;;;;;;11.83;8.00;;;;;;;;;;5037937;28;20474;-64
2022/12/08 06:51:55;;;;;;;14.70;8.60;;;;;;;;;;5037873;28;20541;-63
2022/12/08 06:54:23;;;;;;;17.37;9.40;;;;;;;;;;5037439;28;20484;-64
2022/12/08 06:56:51;;;;;;;20.37;8.83;;;;;;;;;;5037638;28;20470;-64
2022/12/08 06:59:19;;;;;;;16.63;9.37;;;;;;;;;;5037619;28;20546;-64
2022/12/08 07:01:49;;;;;;;14.77;8.80;;;;;;;;;;5034514;28;20454;-62
2022/12/08 07:04:17;;;;;;;15.37;9.87;;;;;;;;;;5037660;28;20488;-63
2022/12/08 07:06:45;;;;;;;13.87;8.73;;;;;;;;;;5037866;28;20478;-63
2022/12/08 07:09:13;;;;;;;17.03;9.17;;;;;;;;;;5037392;28;20504;-63
2022/12/08 07:11:41;;;;;;;16.33;9.20;;;;;;;;;;5037537;28;20442;-63
2022/12/08 07:14:10;;;;;;;12.97;9.20;;;;;;;;;;5037392;28;20466;-64
2022/12/08 07:16:39;;;;;;;15.13;9.87;;;;;;;;;;5037563;28;20526;-64
2022/12/08 07:19:08;;;;;;;13.80;8.93;;;;;;;;;;5037369;28;20457;-64
2022/12/08 07:21:36;;;;;;;14.77;8.30;;;;;;;;;;5037514;28;20442;-63
2022/12/08 07:24:05;;;;;;;13.17;8.70;;;;;;;;;;5036085;28;20474;-63
2022/12/08 07:26:33;;;;;;;13.23;8.10;;;;;;;;;;5037247;28;20482;-63
2022/12/08 07:29:01;;;;;;;11.70;7.97;;;;;;;;;;5037424;28;20972;-64
2022/12/08 07:31:29;;;;;;;13.87;8.17;;;;;;;;;;5037472;28;20442;-63
2022/12/08 07:33:58;;;;;;;15.40;9.83;;;;;;;;;;5035731;28;20818;-63
2022/12/08 07:36:27;;;;;;;14.90;9.87;;;;;;;;;;5038846;28;20457;-64
2022/12/08 07:38:55;;;;;;;16.90;8.53;;;;;;;;;;5041549;28;20492;-64
2022/12/08 07:41:24;;;;;;;21.13;10.03;;;;;;;;;;5041321;28;20489;-64
2022/12/08 07:43:53;;;;;;;12.30;7.87;;;;;;;;;;5041558;28;20505;-63
2022/12/08 07:46:22;;;;;;;13.70;8.13;;;;;;;;;;5041574;28;20926;-63
2022/12/08 07:48:51;;;;;;;16.43;9.70;;;;;;;;;;5041755;28;20450;-64
2022/12/08 07:51:20;;;;;;;12.80;8.43;;;;;;;;;;5041531;28;20906;-64
2022/12/08 07:53:51;;;;;;;13.40;9.03;;;;;;;;;;5041144;28;20585;-64
2022/12/08 07:56:21;;;;;;;15.07;8.27;;;;;;;;;;5040929;28;20446;-64
2022/12/08 07:58:49;;;;;;;12.63;8.40;;;;;;;;;;5041098;28;20446;-62
2022/12/08 08:01:24;;;;;;;12.63;8.63;;;;;;;;;;5040365;28;20485;-63
2022/12/08 08:03:53;;;;;;;16.67;9.90;;;;;;;;;;5039278;28;20531;-63
2022/12/08 08:06:21;;;;;;;14.43;8.13;;;;;;;;;;5041250;28;20480;-63
2022/12/08 08:08:50;;;;;;;15.90;9.70;;;;;;;;;;5040621;28;20481;-63
2022/12/08 08:11:18;;;;;;;14.57;8.57;;;;;;;;;;5027940;28;20438;-63
2022/12/08 08:13:48;;;;;;;15.47;7.70;;;;;;;;;;5036946;28;21086;-63
2022/12/08 08:16:17;;;;;;;15.67;9.53;;;;;;;;;;5040761;28;20446;-63
2022/12/08 08:18:47;;;;;;;16.13;8.47;;;;;;;;;;5040659;28;20810;-63
2022/12/08 08:21:16;;;;;;;13.73;8.60;;;;;;;;;;5040706;28;20874;-63
2022/12/08 08:24:06;;;;;;;16.50;9.23;;;;;;;;;;5040170;28;21014;-64
2022/12/08 08:26:34;;;;;;;19.17;8.80;;;;;;;;;;5040678;28;20457;-63
2022/12/08 08:29:03;;;;;;;16.67;9.67;;;;;;;;;;5041004;28;20448;-64
2022/12/08 08:31:32;;;;;;;12.70;8.40;;;;;;;;;;5040091;28;20454;-64
2022/12/08 08:34:04;;;;;;;17.03;9.30;;;;;;;;;;5040570;28;20850;-64
2022/12/08 08:36:33;;;;;;;15.23;9.30;;;;;;;;;;5040894;28;20442;-63
2022/12/08 08:39:01;;;;;;;14.17;9.17;;;;;;;;;;5040755;28;20453;-63
2022/12/08 08:41:31;;;;;;;18.13;9.60;;;;;;;;;;5038821;28;20501;-64
2022/12/08 08:43:59;;;;;;;16.77;9.70;;;;;;;;;;5040660;28;20484;-64
2022/12/08 08:46:27;;;;;;;20.67;10.07;;;;;;;;;;5040424;28;20500;-63
2022/12/08 08:48:56;;;;;;;13.30;9.80;;;;;;;;;;5040037;28;20496;-63
2022/12/08 08:51:24;;;;;;;17.70;9.80;;;;;;;;;;5040427;28;20438;-64
2022/12/08 08:53:52;;;;;;;15.50;9.60;;;;;;;;;;5039917;28;20550;-64
2022/12/08 08:56:20;;;;;;;12.83;9.33;;;;;;;;;;5040175;28;20450;-64
2022/12/08 08:58:51;;;;;;;18.17;9.07;;;;;;;;;;5040357;28;20442;-64
2022/12/08 09:01:20;;;;;;;18.07;10.33;;;;;;;;;;5039356;28;20482;-63
2022/12/08 09:03:49;;;;;;;16.60;10.90;;;;;;;;;;5037883;28;20505;-63
2022/12/08 09:06:17;;;;;;;17.40;9.40;;;;;;;;;;5039872;28;20466;-63
2022/12/08 09:08:46;;;;;;;19.73;10.67;;;;;;;;;;5039762;28;20466;-64
2022/12/08 09:11:14;;;;;;;17.97;10.77;;;;;;;;;;5039758;28;20853;-63
2022/12/08 09:13:42;;;;;;;15.60;9.33;;;;;;;;;;5032836;28;20482;-63
2022/12/08 09:16:12;;;;;;;21.50;10.83;;;;;;;;;;5026446;28;20466;-63
2022/12/08 09:18:40;;;;;;;18.13;9.70;;;;;;;;;;5033277;28;20500;-63
2022/12/08 09:21:10;;;;;;;16.50;9.83;;;;;;;;;;5039702;28;20565;-63
2022/12/08 09:23:38;;;;;;;16.87;10.47;;;;;;;;;;5039144;28;20470;-63
2022/12/08 09:26:06;;;;;;;16.43;9.20;;;;;;;;;;5039816;28;20529;-63
2022/12/08 09:28:35;;;;;;;18.63;9.50;;;;;;;;;;5039707;28;20478;-63
2022/12/08 09:31:03;;;;;;;13.00;8.13;;;;;;;;;;5039555;28;20469;-63
2022/12/08 09:33:33;;;;;;;17.13;10.13;;;;;;;;;;5038249;28;20542;-63
2022/12/08 09:36:02;;;;;;;16.00;8.97;;;;;;;;;;5039069;28;20909;-63
2022/12/08 09:38:30;;;;;;;17.47;9.70;;;;;;;;;;5039007;28;20876;-63
2022/12/08 09:40:59;;;;;;;20.87;10.83;;;;;;;;;;5039282;28;20532;-63
2022/12/08 09:43:39;;;;;;;19.27;9.93;;;;;;;;;;5039115;28;20876;-63
2022/12/08 09:46:09;;;;;;;16.97;9.37;;;;;;;;;;5039392;28;20879;-63
2022/12/08 09:48:40;;;;;;;17.73;11.03;;;;;;;;;;5037501;28;20485;-62
2022/12/08 09:51:08;;;;;;;15.87;9.70;;;;;;;;;;5033194;28;20447;-63
2022/12/08 09:53:39;;;;;;;17.40;9.43;;;;;;;;;;5021750;28;20962;-63
2022/12/08 09:56:11;;;;;;;20.03;10.17;;;;;;;;;;5038969;28;20450;-64
2022/12/08 09:58:46;;;;;;;17.57;10.07;;;;;;;;;;5029436;28;20467;-63
2022/12/08 10:01:14;;;;;;;20.00;11.03;;;;;;;;;;5028446;28;21060;-63
2022/12/08 10:03:44;;;;;;;20.73;10.37;;;;;;;;;;5032229;28;20478;-63
2022/12/08 10:06:15;;;;;;;20.37;10.80;;;;;;;;;;5038069;28;20992;-63
2022/12/08 10:08:46;;;;;;;15.77;9.83;;;;;;;;;;5032590;28;20450;-64
2022/12/08 10:11:16;;;;;;;17.33;9.87;;;;;;;;;;5038670;28;20443;-63
2022/12/08 10:13:49;;;;;;;20.40;10.87;;;;;;;;;;5037730;28;20466;-63
2022/12/08 10:16:22;;;;;;;17.53;9.63;;;;;;;;;;5035372;28;20450;-64
2022/12/08 10:19:01;;;;;;;18.80;10.10;;;;;;;;;;5038616;28;20963;-64
2022/12/08 10:21:31;;;;;;;20.07;10.37;;;;;;;;;;5038513;28;20486;-63
2022/12/08 10:24:04;;;;;;;16.43;10.33;;;;;;;;;;5036728;28;20509;-64
2022/12/08 10:26:32;;;;;;;19.63;11.67;;;;;;;;;;5036731;28;20466;-64
2022/12/08 10:29:01;;;;;;;20.00;10.50;;;;;;;;;;5038360;28;20453;-63
2022/12/08 10:31:30;;;;;;;20.17;11.10;;;;;;;;;;5038647;28;20446;-64
2022/12/08 10:34:01;;;;;;;18.67;10.27;;;;;;;;;;5038254;28;21003;-64
2022/12/08 10:36:45;;;;;;;18.67;10.70;;;;;;;;;;5025586;28;20442;-63
2022/12/08 10:39:32;;;;;;;19.90;11.30;;;;;;;;;;5036643;28;20470;-64
2022/12/08 10:42:06;;;;;;;18.67;11.07;;;;;;;;;;5033560;28;20499;-63
2022/12/08 10:44:38;;;;;;;18.20;8.97;;;;;;;;;;5025018;28;20466;-63
2022/12/08 10:47:11;;;;;;;18.63;10.03;;;;;;;;;;5032445;28;20452;-64
2022/12/08 10:49:41;;;;;;;18.10;11.37;;;;;;;;;;5035775;28;20455;-63
2022/12/08 10:52:21;;;;;;;20.63;11.33;;;;;;;;;;5035168;28;20486;-64
2022/12/08 10:54:52;;;;;;;23.90;11.43;;;;;;;;;;5030242;28;20515;-64
2022/12/08 10:57:21;;;;;;;18.30;10.70;;;;;;;;;;5035636;28;20892;-62
2022/12/08 10:59:49;;;;;;;19.33;11.03;;;;;;;;;;5030110;28;20933;-65
2022/12/08 11:02:18;;;;;;;18.83;11.47;;;;;;;;;;5035021;28;20484;-64
2022/12/08 11:04:57;;;;;;;20.10;10.43;;;;;;;;;;5030602;28;20509;-63
2022/12/08 11:07:26;;;;;;;20.63;11.97;;;;;;;;;;5029666;28;20478;-64
2022/12/08 11:09:56;;;;;;;16.13;9.53;;;;;;;;;;5030033;28;20458;-63
2022/12/08 11:12:27;;;;;;;19.73;11.50;;;;;;;;;;5025366;28;20439;-64
2022/12/08 11:14:57;;;;;;;22.63;12.03;;;;;;;;;;5036104;28;21069;-63
2022/12/08 11:17:27;;;;;;;18.30;10.47;;;;;;;;;;5037634;28;20533;-63
2022/12/08 11:19:57;;;;;;;20.23;11.60;;;;;;;;;;5037618;28;20446;-63
2022/12/08 11:22:26;;;;;;;20.23;10.10;;;;;;;;;;5037393;28;20573;-63
2022/12/08 11:24:57;;;;;;;15.73;10.27;;;;;;;;;;5037456;28;20543;-62
2022/12/08 11:27:25;;;;;;;16.27;10.37;;;;;;;;;;5037544;28;20446;-64
2022/12/08 11:29:53;;;;;;;21.60;10.37;;;;;;;;;;5037496;28;20477;-64
2022/12/08 11:32:22;;;;;;;18.40;10.63;;;;;;;;;;5036032;28;20485;-63
2022/12/08 11:34:51;;;;;;;18.53;10.27;;;;;;;;;;5037333;28;20557;-64
2022/12/08 11:37:23;;;;;;;14.63;9.60;;;;;;;;;;5037347;28;20450;-64
2022/12/08 11:39:58;;;;;;;23.67;10.40;;;;;;;;;;5037535;28;20934;-64
2022/12/08 11:42:30;;;;;;;17.23;10.00;;;;;;;;;;5037147;28;20490;-63
2022/12/08 11:44:59;;;;;;;16.53;10.60;;;;;;;;;;5035379;28;21032;-63
2022/12/08 11:47:29;;;;;;;17.27;10.27;;;;;;;;;;5035406;28;20458;-63
2022/12/08 11:50:02;;;;;;;19.90;11.73;;;;;;;;;;5037547;28;20470;-63
2022/12/08 11:52:33;;;;;;;20.60;11.30;;;;;;;;;;5037150;28;20529;-63
2022/12/08 11:55:05;;;;;;;21.80;10.57;;;;;;;;;;5037151;28;20466;-63
2022/12/08 11:57:33;;;;;;;19.50;11.23;;;;;;;;;;5035562;28;20486;-64
2022/12/08 12:00:02;;;;;;;16.60;10.77;;;;;;;;;;5035059;28;20464;-64
2022/12/08 12:02:31;;;;;;;17.73;10.70;;;;;;;;;;5033644;28;20482;-64
2022/12/08 12:05:03;;;;;;;21.40;11.50;;;;;;;;;;5031494;28;20470;-64
2022/12/08 12:07:48;;;;;;;17.87;10.10;;;;;;;;;;5036818;28;20446;-62
2022/12/08 12:10:31;;;;;;;17.70;10.20;;;;;;;;;;5037312;28;20450;-63
2022/12/08 12:13:05;;;;;;;20.47;10.47;;;;;;;;;;5037323;28;20456;-63
2022/12/08 12:15:56;;;;;;;19.00;11.23;;;;;;;;;;5035622;28;20489;-62
2022/12/08 12:18:26;;;;;;;22.47;11.00;;;;;;;;;;5036209;28;20454;-63
2022/12/08 12:20:57;;;;;;;23.63;11.73;;;;;;;;;;5037160;28;20861;-63
2022/12/08 12:23:32;;;;;;;16.17;10.33;;;;;;;;;;5037964;28;20828;-63
2022/12/08 12:26:05;;;;;;;17.80;10.90;;;;;;;;;;5040511;28;20816;-63
2022/12/08 12:28:40;;;;;;;17.43;11.23;;;;;;;;;;5040494;28;20477;-63
2022/12/08 12:31:09;;;;;;;22.53;11.93;;;;;;;;;;5041046;28;20445;-64
2022/12/08 12:33:38;;;;;;;20.20;12.00;;;;;;;;;;5040300;28;20472;-63
2022/12/08 12:36:07;;;;;;;22.77;11.67;;;;;;;;;;5040315;28;20516;-64
2022/12/08 12:41:25;;;;;;;18.80;10.60;;;;;;;;;;5040060;28;20484;-63
2022/12/08 12:44:11;;;;;;;23.97;13.53;;;;;;;;;;5040102;28;20486;-62
2022/12/08 12:46:53;;;;;;;19.47;12.63;;;;;;;;;;5040594;28;20442;-64
2022/12/08 12:49:51;;;;;;;17.83;11.37;;;;;;;;;;5040544;28;20449;-65
2022/12/08 12:52:52;;;;;;;19.63;11.37;;;;;;;;;;4969708;28;20491;-64
2022/12/08 12:55:24;;;;;;;19.07;10.73;;;;;;;;;;5037106;28;20527;-64
2022/12/08 12:57:53;;;;;;;20.93;11.70;;;;;;;;;;5040151;28;20497;-64
2022/12/08 13:00:22;;;;;;;16.53;10.13;;;;;;;;;;5040190;28;20452;-63
2022/12/08 13:02:51;;;;;;;19.67;12.07;;;;;;;;;;5040033;28;20513;-63
2022/12/08 13:05:21;;;;;;;21.90;11.93;;;;;;;;;;5040396;28;20520;-63
2022/12/08 13:07:51;;;;;;;25.73;12.07;;;;;;;;;;5039745;28;20500;-64
2022/12/08 13:10:21;;;;;;;22.50;11.13;;;;;;;;;;5040316;28;20450;-64
2022/12/08 13:13:03;;;;;;;22.47;12.93;;;;;;;;;;5039913;28;20452;-64
2022/12/08 13:15:35;;;;;;;20.77;11.90;;;;;;;;;;5038305;28;20458;-64
2022/12/08 13:18:03;;;;;;;25.87;13.27;;;;;;;;;;5032039;28;20545;-64
2022/12/08 13:20:40;;;;;;;24.53;12.97;;;;;;;;;;5039624;28;20534;-63
2022/12/08 13:23:13;;;;;;;23.10;10.97;;;;;;;;;;5039279;28;21080;-64
2022/12/08 13:25:59;;;;;;;22.80;12.30;;;;;;;;;;5039637;28;20469;-64
2022/12/08 13:28:30;;;;;;;23.50;12.30;;;;;;;;;;5039924;28;20450;-64
2022/12/08 13:30:59;;;;;;;22.67;12.77;;;;;;;;;;5039891;28;20469;-64
2022/12/08 13:33:29;;;;;;;21.13;12.80;;;;;;;;;;5036623;28;20866;-63
2022/12/08 13:36:03;;;;;;;23.20;13.20;;;;;;;;;;5037840;28;20870;-63
2022/12/08 13:38:34;;;;;;;25.60;12.73;;;;;;;;;;5039060;28;20961;-63
2022/12/08 13:41:06;;;;;;;21.73;13.03;;;;;;;;;;5039352;28;20577;-64
2022/12/08 13:43:39;;;;;;;22.63;12.90;;;;;;;;;;5039133;28;21052;-64
2022/12/08 13:46:31;;;;;;;19.40;11.73;;;;;;;;;;5038115;28;20457;-63
2022/12/08 13:49:22;;;;;;;23.60;13.10;;;;;;;;;;5038366;28;20515;-64
2022/12/08 13:52:16;;;;;;;22.77;13.47;;;;;;;;;;5028360;28;20537;-64
2022/12/08 13:55:05;;;;;;;22.17;12.10;;;;;;;;;;5039004;28;20469;-64
2022/12/08 13:57:55;;;;;;;22.93;13.13;;;;;;;;;;5038371;28;20474;-63
2022/12/08 14:00:26;;;;;;;20.83;12.83;;;;;;;;;;5039285;28;20449;-63
2022/12/08 14:02:56;;;;;;;24.33;13.33;;;;;;;;;;5038801;28;20573;-64
2022/12/08 14:05:25;;;;;;;25.13;13.10;;;;;;;;;;5039032;28;20474;-64
2022/12/08 14:08:19;;;;;;;21.97;12.77;;;;;;;;;;5027018;28;20435;-64
2022/12/08 14:11:07;;;;;;;25.43;14.30;;;;;;;;;;5037578;28;20941;-64
2022/12/08 14:13:36;;;;;;;28.53;13.77;;;;;;;;;;5038660;28;20462;-64
2022/12/08 14:16:06;;;;;;;30.27;14.63;;;;;;;;;;5036725;28;20536;-64
2022/12/08 14:18:34;;;;;;;22.87;13.33;;;;;;;;;;5038624;28;20529;-64
2022/12/08 14:21:03;;;;;;;25.10;13.87;;;;;;;;;;5035749;28;20458;-64
2022/12/08 14:23:48;;;;;;;21.70;13.43;;;;;;;;;;5037995;28;20489;-64
2022/12/08 14:26:16;;;;;;;27.20;13.57;;;;;;;;;;5038125;28;20466;-64
2022/12/08 14:28:45;;;;;;;25.17;12.43;;;;;;;;;;5038781;28;20447;-64
2022/12/08 14:31:14;;;;;;;24.60;13.23;;;;;;;;;;5038840;28;20451;-63
2022/12/08 14:33:43;;;;;;;25.40;14.40;;;;;;;;;;5038557;28;20874;-64
2022/12/08 14:36:13;;;;;;;21.70;12.60;;;;;;;;;;5038620;28;20450;-64
2022/12/08 14:38:41;;;;;;;24.37;13.63;;;;;;;;;;5038180;28;20516;-64
2022/12/08 14:41:10;;;;;;;23.97;13.63;;;;;;;;;;5038353;28;20485;-63
2022/12/08 14:43:39;;;;;;;21.93;13.30;;;;;;;;;;5038198;28;20536;-63
2022/12/08 14:46:19;;;;;;;23.00;13.57;;;;;;;;;;5035873;28;20512;-64
2022/12/08 14:48:48;;;;;;;25.40;13.50;;;;;;;;;;5036674;28;20957;-64
2022/12/08 14:51:20;;;;;;;23.60;13.10;;;;;;;;;;5027542;28;20447;-64
2022/12/08 14:53:53;;;;;;;26.63;13.83;;;;;;;;;;5037623;28;20465;-64
2022/12/08 14:56:22;;;;;;;22.97;13.43;;;;;;;;;;5038062;28;20454;-64
2022/12/08 14:58:51;;;;;;;27.57;14.40;;;;;;;;;;5037935;28;20549;-63
2022/12/08 15:01:23;;;;;;;25.13;13.07;;;;;;;;;;5036156;28;20458;-63